createdAt,value
2022-08-16T00:00:20.386Z,21.00
2022-08-16T00:02:51.947Z,19.70
2022-08-16T00:05:20.354Z,21.05
2022-08-16T00:07:47.434Z,24.10
2022-08-16T00:10:21.147Z,17.75
2022-08-16T00:12:49.964Z,19.00
2022-08-16T00:15:23.118Z,20.50
2022-08-16T00:17:57.020Z,23.27
2022-08-16T00:20:25.150Z,23.52
2022-08-16T00:22:52.711Z,22.65
2022-08-16T00:25:21.861Z,19.77
2022-08-16T00:28:09.192Z,20.63
2022-08-16T00:30:38.805Z,19.92
2022-08-16T00:33:06.964Z,20.15
2022-08-16T00:35:37.008Z,22.60
2022-08-16T00:38:41.514Z,18.27
2022-08-16T00:40:54.325Z,20.05
2022-08-16T00:43:43.228Z,22.73
2022-08-16T00:46:33.224Z,18.70
2022-08-16T00:49:05.358Z,19.35
2022-08-16T00:51:32.493Z,19.63
2022-08-16T00:54:01.244Z,16.63
2022-08-16T00:56:57.657Z,21.30
2022-08-16T00:59:23.779Z,17.00
2022-08-16T01:01:51.492Z,17.30
2022-08-16T01:04:29.013Z,15.88
2022-08-16T01:07:01.834Z,17.95
2022-08-16T01:09:33.260Z,16.38
2022-08-16T01:12:04.086Z,16.27
2022-08-16T01:14:43.436Z,17.58
2022-08-16T01:17:13.009Z,15.80
2022-08-16T01:19:44.392Z,19.08
2022-08-16T01:22:52.533Z,15.68
2022-08-16T01:25:33.993Z,16.88
2022-08-16T01:28:07.182Z,16.13
2022-08-16T01:30:39.806Z,15.10
2022-08-16T01:33:17.510Z,17.80
2022-08-16T01:35:56.686Z,14.25
2022-08-16T01:38:31.920Z,17.40
2022-08-16T01:43:31.985Z,16.73
2022-08-16T01:46:29.943Z,15.15
2022-08-16T01:48:48.851Z,16.50
2022-08-16T01:51:18.476Z,16.02
2022-08-16T01:53:55.480Z,20.13
2022-08-16T01:56:25.227Z,16.85
2022-08-16T01:58:54.751Z,14.88
2022-08-16T02:01:22.520Z,16.45
2022-08-16T02:03:51.804Z,15.80
2022-08-16T02:06:33.887Z,17.25
2022-08-16T02:09:05.424Z,15.05
2022-08-16T02:11:47.379Z,14.70
2022-08-16T02:14:18.287Z,15.25
2022-08-16T02:16:49.190Z,17.58
2022-08-16T02:19:19.921Z,14.45
2022-08-16T02:22:08.375Z,15.13
2022-08-16T02:24:42.206Z,17.55
2022-08-16T02:27:10.378Z,18.77
2022-08-16T02:29:38.375Z,14.18
2022-08-16T02:32:50.422Z,15.93
2022-08-16T02:35:01.127Z,17.15
2022-08-16T02:37:39.756Z,15.57
2022-08-16T02:40:16.975Z,15.95
2022-08-16T02:42:50.007Z,16.50
2022-08-16T02:45:20.240Z,16.13
2022-08-16T02:48:01.855Z,16.02
2022-08-16T02:50:54.330Z,17.27
2022-08-16T02:53:27.025Z,17.02
2022-08-16T02:55:54.440Z,17.27
2022-08-16T02:58:24.807Z,18.70
2022-08-16T03:00:56.166Z,16.17
2022-08-16T03:03:25.975Z,17.38
2022-08-16T03:05:53.617Z,15.10
2022-08-16T03:08:31.126Z,15.80
2022-08-16T03:11:16.829Z,17.25
2022-08-16T03:13:53.156Z,15.13
2022-08-16T03:16:37.621Z,15.98
2022-08-16T03:19:06.768Z,16.70
2022-08-16T03:21:37.841Z,16.58
2022-08-16T03:24:28.569Z,14.52
2022-08-16T03:26:58.114Z,17.60
2022-08-16T03:29:31.989Z,15.23
2022-08-16T03:32:01.222Z,15.48
2022-08-16T03:34:29.617Z,15.98
2022-08-16T03:36:57.381Z,17.88
2022-08-16T03:39:25.061Z,16.17
2022-08-16T03:41:59.279Z,17.63
2022-08-16T03:44:44.293Z,15.48
2022-08-16T03:47:19.803Z,16.77
2022-08-16T03:49:51.806Z,16.70
2022-08-16T03:52:20.710Z,17.50
2022-08-16T03:54:57.440Z,18.25
2022-08-16T03:57:31.666Z,17.33
2022-08-16T04:00:20.786Z,18.17
2022-08-16T04:03:08.551Z,16.92
2022-08-16T04:05:38.899Z,17.17
2022-08-16T04:08:23.198Z,18.50
2022-08-16T04:10:52.862Z,19.85
2022-08-16T04:14:00.745Z,18.60
2022-08-16T04:16:08.377Z,20.00
2022-08-16T04:18:38.756Z,18.15
2022-08-16T04:21:06.088Z,18.63
2022-08-16T04:23:33.337Z,15.35
2022-08-16T04:26:02.124Z,16.98
2022-08-16T04:28:55.833Z,18.27
2022-08-16T04:31:16.802Z,21.63
2022-08-16T04:33:51.157Z,17.85
2022-08-16T04:36:20.196Z,19.50
2022-08-16T04:38:50.080Z,17.45
2022-08-16T04:41:19.497Z,17.27
2022-08-16T04:44:00.612Z,16.42
2022-08-16T04:47:01.219Z,15.95
2022-08-16T04:49:14.762Z,15.88
2022-08-16T04:51:41.840Z,18.92
2022-08-16T04:54:10.157Z,17.67
2022-08-16T04:56:42.902Z,16.13
2022-08-16T04:59:13.548Z,18.83
2022-08-16T05:01:58.087Z,18.65
2022-08-16T05:04:26.118Z,19.85
2022-08-16T05:06:57.445Z,18.10
2022-08-16T05:09:24.672Z,19.15
2022-08-16T05:11:51.784Z,17.50
2022-08-16T05:14:20.268Z,20.85
2022-08-16T05:17:06.068Z,20.88
2022-08-16T05:19:36.684Z,18.35
2022-08-16T05:22:04.082Z,18.65
2022-08-16T05:24:31.994Z,19.42
2022-08-16T05:26:59.129Z,18.67
2022-08-16T05:30:00.153Z,20.63
2022-08-16T05:32:32.512Z,19.65
2022-08-16T05:35:01.906Z,18.70
2022-08-16T05:37:29.462Z,21.65
2022-08-16T05:40:08.213Z,20.60
2022-08-16T05:42:36.131Z,18.05
2022-08-16T05:45:06.938Z,17.88
2022-08-16T05:47:34.314Z,19.55
2022-08-16T05:50:19.361Z,18.48
2022-08-16T05:52:46.696Z,21.90
2022-08-16T05:55:13.995Z,19.52
2022-08-16T05:57:41.933Z,20.73
2022-08-16T06:00:11.780Z,20.70
2022-08-16T06:02:39.056Z,19.55
2022-08-16T06:05:06.944Z,21.83
2022-08-16T06:07:38.442Z,18.60
2022-08-16T06:10:07.489Z,16.20
2022-08-16T06:12:37.418Z,18.27
2022-08-16T06:15:09.918Z,17.08
2022-08-16T06:17:43.290Z,15.07
2022-08-16T06:20:24.059Z,17.20
2022-08-16T06:22:58.513Z,16.80
2022-08-16T06:25:35.975Z,16.40
2022-08-16T06:28:08.839Z,15.18
2022-08-16T06:30:43.426Z,16.55
2022-08-16T06:33:22.185Z,14.68
2022-08-16T06:35:57.725Z,15.02
2022-08-16T06:38:33.483Z,16.98
2022-08-16T06:41:06.874Z,15.93
2022-08-16T06:43:41.697Z,16.30
2022-08-16T06:46:20.750Z,17.23
2022-08-16T06:48:51.523Z,16.35
2022-08-16T06:51:19.006Z,21.48
2022-08-16T06:53:46.238Z,19.67
2022-08-16T06:56:23.374Z,14.80
2022-08-16T06:58:52.735Z,17.05
2022-08-16T07:01:42.856Z,15.70
2022-08-16T07:04:10.454Z,17.20
2022-08-16T07:06:43.156Z,20.38
2022-08-16T07:09:12.317Z,14.82
2022-08-16T07:11:45.592Z,21.05
2022-08-16T07:14:24.584Z,17.10
2022-08-16T07:16:58.227Z,14.25
2022-08-16T07:20:01.641Z,15.68
2022-08-16T07:22:37.378Z,17.23
2022-08-16T07:25:01.236Z,16.48
2022-08-16T07:27:28.820Z,16.80
2022-08-16T07:29:59.231Z,14.00
2022-08-16T07:32:29.694Z,15.93
2022-08-16T07:34:58.732Z,16.80
2022-08-16T07:37:25.840Z,15.77
2022-08-16T07:39:54.640Z,18.25
2022-08-16T07:42:28.272Z,14.80
2022-08-16T07:45:07.517Z,19.65
2022-08-16T07:47:37.391Z,17.17
2022-08-16T07:50:07.810Z,17.02
2022-08-16T07:52:35.208Z,19.83
2022-08-16T07:55:07.052Z,21.98
2022-08-16T07:57:38.072Z,16.95
2022-08-16T08:00:21.243Z,15.25
2022-08-16T08:02:55.448Z,17.40
2022-08-16T08:05:25.598Z,13.48
2022-08-16T08:08:03.219Z,15.65
2022-08-16T08:10:39.307Z,13.25
2022-08-16T08:13:06.399Z,13.48
2022-08-16T08:15:37.155Z,12.02
2022-08-16T08:18:29.999Z,14.77
2022-08-16T08:20:59.146Z,13.13
2022-08-16T08:23:27.585Z,15.18
2022-08-16T08:25:55.849Z,12.52
2022-08-16T08:28:23.140Z,13.30
2022-08-16T08:31:01.143Z,15.27
2022-08-16T08:33:29.368Z,13.25
2022-08-16T08:36:01.428Z,15.95
2022-08-16T08:38:45.580Z,15.85
2022-08-16T08:41:15.169Z,14.00
2022-08-16T08:43:42.997Z,13.55
2022-08-16T08:46:17.873Z,11.10
2022-08-16T08:48:59.397Z,16.15
2022-08-16T08:51:35.867Z,17.00
2022-08-16T08:54:09.468Z,14.82
2022-08-16T08:56:37.698Z,15.68
2022-08-16T08:59:20.523Z,15.60
2022-08-16T09:01:58.094Z,11.40
2022-08-16T09:04:27.173Z,12.20
2022-08-16T09:06:54.911Z,11.45
2022-08-16T09:09:22.835Z,13.52
2022-08-16T09:11:53.357Z,15.38
2022-08-16T09:14:32.110Z,11.38
2022-08-16T09:17:03.059Z,11.52
2022-08-16T09:19:40.878Z,10.45
2022-08-16T09:22:19.863Z,9.60
2022-08-16T09:24:52.363Z,10.95
2022-08-16T09:27:23.565Z,10.05
2022-08-16T09:30:00.152Z,11.43
2022-08-16T09:32:31.176Z,11.27
2022-08-16T09:34:59.804Z,12.32
2022-08-16T09:37:36.353Z,13.13
2022-08-16T09:40:33.094Z,10.55
2022-08-16T09:42:56.348Z,11.93
2022-08-16T09:45:28.894Z,13.40
2022-08-16T09:47:58.353Z,15.05
2022-08-16T09:50:36.914Z,12.32
2022-08-16T09:53:08.741Z,14.50
2022-08-16T09:55:44.927Z,11.00
2022-08-16T09:58:40.673Z,12.82
2022-08-16T10:01:03.522Z,13.77
2022-08-16T10:03:32.120Z,12.55
2022-08-16T10:05:59.243Z,10.38
2022-08-16T10:08:27.448Z,17.60
2022-08-16T10:11:30.402Z,10.88
2022-08-16T10:13:57.487Z,9.85
2022-08-16T10:16:25.127Z,12.75
2022-08-16T10:19:02.390Z,10.60
2022-08-16T10:21:33.954Z,10.80
2022-08-16T10:24:02.125Z,11.35
2022-08-16T10:27:19.946Z,11.20
2022-08-16T10:29:20.025Z,9.73
2022-08-16T10:31:53.090Z,8.98
2022-08-16T10:34:31.923Z,8.57
2022-08-16T10:37:00.820Z,11.15
2022-08-16T10:39:40.573Z,11.52
2022-08-16T10:42:08.750Z,11.27
2022-08-16T10:44:35.898Z,10.05
2022-08-16T10:47:03.764Z,13.27
2022-08-16T10:49:32.190Z,12.50
2022-08-16T10:52:02.736Z,9.50
2022-08-16T10:55:37.276Z,7.22
2022-08-16T10:57:32.847Z,7.55
2022-08-16T11:00:01.311Z,9.90
2022-08-16T11:02:58.817Z,8.13
2022-08-16T11:05:16.966Z,6.95
2022-08-16T11:07:52.324Z,8.65
2022-08-16T11:16:26.361Z,10.27
2022-08-16T11:19:05.328Z,9.38
2022-08-16T11:22:22.933Z,8.32
2022-08-16T11:24:42.903Z,7.80
2022-08-16T11:27:22.920Z,8.65
2022-08-16T11:29:53.527Z,7.78
2022-08-16T11:32:31.196Z,7.57
2022-08-16T11:35:10.273Z,8.82
2022-08-16T11:40:32.741Z,8.02
2022-08-16T11:43:01.489Z,9.50
2022-08-16T11:45:33.953Z,8.60
2022-08-16T11:48:05.571Z,8.55
2022-08-16T11:50:33.659Z,7.10
2022-08-16T11:53:02.390Z,8.73
2022-08-16T11:55:32.435Z,7.40
2022-08-16T11:58:00.547Z,8.57
2022-08-16T12:00:33.775Z,7.38
2022-08-16T12:03:16.982Z,7.65
2022-08-16T12:05:46.002Z,10.98
2022-08-16T12:08:13.147Z,9.35
2022-08-16T12:10:46.951Z,8.10
2022-08-16T12:13:14.710Z,9.10
2022-08-16T12:15:42.496Z,9.68
2022-08-16T12:18:11.146Z,8.90
2022-08-16T12:20:47.870Z,8.60
2022-08-16T12:23:17.353Z,11.75
2022-08-16T12:25:44.762Z,7.78
2022-08-16T12:28:12.623Z,8.80
2022-08-16T12:33:25.222Z,5.90
2022-08-16T12:35:53.133Z,8.93
2022-08-16T12:38:40.876Z,7.75
2022-08-16T12:41:08.123Z,6.43
2022-08-16T12:43:36.352Z,6.43
2022-08-16T12:46:09.503Z,7.20
2022-08-16T12:48:55.827Z,5.55
2022-08-16T12:51:31.286Z,7.18
2022-08-16T12:54:16.061Z,5.53
2022-08-16T12:56:43.276Z,8.90
2022-08-16T12:59:13.208Z,8.40
2022-08-16T13:01:47.663Z,5.63
2022-08-16T13:04:20.650Z,6.90
2022-08-16T13:06:52.128Z,6.88
2022-08-16T13:09:24.059Z,11.52
2022-08-16T13:12:00.486Z,7.40
2022-08-16T13:14:33.511Z,10.93
2022-08-16T13:17:06.479Z,5.93
2022-08-16T13:20:05.462Z,7.22
2022-08-16T13:22:23.566Z,7.57
2022-08-16T13:24:53.256Z,8.43
2022-08-16T13:27:20.716Z,8.57
2022-08-16T13:30:01.923Z,6.63
2022-08-16T13:32:39.483Z,5.65
2022-08-16T13:35:08.143Z,10.68
2022-08-16T13:37:41.275Z,7.47
2022-08-16T13:40:09.979Z,7.82
2022-08-16T13:42:49.560Z,8.18
2022-08-16T13:45:16.930Z,9.93
2022-08-16T13:47:44.104Z,10.15
2022-08-16T13:50:11.927Z,6.30
2022-08-16T13:52:40.385Z,6.90
2022-08-16T13:55:17.787Z,4.70
2022-08-16T13:58:34.289Z,8.27
2022-08-16T14:00:32.508Z,7.10
2022-08-16T14:02:59.741Z,7.57
2022-08-16T14:05:27.296Z,9.65
2022-08-16T14:07:54.480Z,6.47
2022-08-16T14:10:21.607Z,6.05
2022-08-16T14:12:48.718Z,9.65
2022-08-16T14:15:16.329Z,6.55
2022-08-16T14:18:14.847Z,6.97
2022-08-16T14:20:30.986Z,10.07
2022-08-16T14:22:58.886Z,7.18
2022-08-16T14:25:27.021Z,6.78
2022-08-16T14:27:54.787Z,8.38
2022-08-16T14:30:23.235Z,10.23
2022-08-16T14:32:51.317Z,5.40
2022-08-16T14:35:36.389Z,6.38
2022-08-16T14:38:13.464Z,5.78
2022-08-16T14:40:52.507Z,6.70
2022-08-16T14:43:22.014Z,5.55
2022-08-16T14:45:50.642Z,5.85
2022-08-16T14:48:25.065Z,6.90
2022-08-16T14:50:53.853Z,6.20
2022-08-16T14:53:21.028Z,5.97
2022-08-16T14:55:48.533Z,5.80
2022-08-16T14:58:19.633Z,5.25
2022-08-16T15:00:50.167Z,5.50
2022-08-16T15:03:19.212Z,5.60
2022-08-16T15:05:48.618Z,6.18
2022-08-16T15:08:17.122Z,8.68
2022-08-16T15:10:47.532Z,6.68
2022-08-16T15:13:14.950Z,6.85
2022-08-16T15:15:43.419Z,8.18
2022-08-16T15:18:12.063Z,10.15
2022-08-16T15:20:41.107Z,12.70
2022-08-16T15:23:10.042Z,13.10
2022-08-16T15:25:44.238Z,11.98
2022-08-16T15:28:31.121Z,13.00
2022-08-16T15:31:03.317Z,14.52
2022-08-16T15:33:33.834Z,14.50
2022-08-16T15:36:03.763Z,17.17
2022-08-16T15:39:03.894Z,15.30
2022-08-16T15:41:42.582Z,14.57
2022-08-16T15:44:15.410Z,15.90
2022-08-16T15:46:55.228Z,15.23
2022-08-16T15:49:34.669Z,14.63
2022-08-16T15:52:07.562Z,16.42
2022-08-16T15:54:52.469Z,16.13
2022-08-16T15:57:23.021Z,12.95
2022-08-16T15:59:52.445Z,15.68
2022-08-16T16:02:29.695Z,16.60
2022-08-16T16:05:01.067Z,14.63
2022-08-16T16:07:30.781Z,13.38
2022-08-16T16:09:59.619Z,15.68
2022-08-16T16:12:51.344Z,15.20
2022-08-16T16:15:18.294Z,11.93
2022-08-16T16:17:51.313Z,11.43
2022-08-16T16:20:22.189Z,10.88
2022-08-16T16:22:52.102Z,11.52
2022-08-16T16:25:19.339Z,12.40
2022-08-16T16:27:55.873Z,11.88
2022-08-16T16:30:37.813Z,11.02
2022-08-16T16:33:20.591Z,8.68
2022-08-16T16:35:55.315Z,8.30
2022-08-16T16:38:28.646Z,7.47
2022-08-16T16:40:56.992Z,5.40
2022-08-16T16:43:25.490Z,6.00
2022-08-16T16:45:53.338Z,7.70
2022-08-16T16:48:21.812Z,5.85
2022-08-16T16:50:57.996Z,4.47
2022-08-16T16:53:26.082Z,4.10
2022-08-16T16:58:54.169Z,6.10
2022-08-16T17:01:21.422Z,7.45
2022-08-16T17:04:13.326Z,6.88
2022-08-16T17:09:20.926Z,5.28
2022-08-16T17:11:54.861Z,5.63
2022-08-16T17:14:33.415Z,6.95
2022-08-16T17:17:08.861Z,4.15
2022-08-16T17:19:40.784Z,6.38
2022-08-16T17:22:13.815Z,6.00
2022-08-16T17:24:45.248Z,8.82
2022-08-16T17:27:19.299Z,10.18
2022-08-16T17:30:29.533Z,5.20
2022-08-16T17:33:11.282Z,4.60
2022-08-16T17:35:55.604Z,5.40
2022-08-16T17:38:38.810Z,6.03
2022-08-16T17:41:12.186Z,5.07
2022-08-16T17:43:44.466Z,7.15
2022-08-16T17:46:41.137Z,6.63
2022-08-16T17:49:00.446Z,7.65
2022-08-16T17:51:28.393Z,7.80
2022-08-16T17:53:56.475Z,8.65
2022-08-16T17:56:23.571Z,5.90
2022-08-16T17:58:50.686Z,5.90
2022-08-16T18:01:20.211Z,6.65
2022-08-16T18:04:06.371Z,8.02
2022-08-16T18:06:34.368Z,5.65
2022-08-16T18:09:03.391Z,8.80
2022-08-16T18:11:33.771Z,9.82
2022-08-16T18:14:01.082Z,6.50
2022-08-16T18:16:28.255Z,5.97
2022-08-16T18:18:55.334Z,8.52
2022-08-16T18:21:41.747Z,7.72
2022-08-16T18:24:10.995Z,9.63
2022-08-16T18:26:38.791Z,6.93
2022-08-16T18:29:06.531Z,7.07
2022-08-16T18:31:34.386Z,7.13
2022-08-16T18:34:01.573Z,8.82
2022-08-16T18:36:28.810Z,7.28
2022-08-16T18:38:55.913Z,6.00
2022-08-16T18:41:24.737Z,8.32
2022-08-16T18:44:23.570Z,6.30
2022-08-16T18:46:43.638Z,11.52
2022-08-16T18:49:13.124Z,7.05
2022-08-16T18:51:43.339Z,301.17
2022-08-16T18:54:11.483Z,290.20
2022-08-16T18:56:56.156Z,256.92
2022-08-16T18:59:26.086Z,106.82
2022-08-16T19:01:53.248Z,44.03
2022-08-16T19:04:54.812Z,11.90
2022-08-16T19:07:14.585Z,11.02
2022-08-16T19:09:41.866Z,15.98
2022-08-16T19:12:09.178Z,10.98
2022-08-16T19:14:36.284Z,14.48
2022-08-16T19:17:03.962Z,11.90
2022-08-16T19:19:31.116Z,8.75
2022-08-16T19:21:58.293Z,9.82
2022-08-16T19:24:29.213Z,10.20
2022-08-16T19:26:57.186Z,9.95
2022-08-16T19:29:24.621Z,21.60
2022-08-16T19:31:51.804Z,20.25
2022-08-16T19:34:18.866Z,32.80
2022-08-16T19:36:45.969Z,34.97
2022-08-16T19:39:15.156Z,20.58
2022-08-16T19:41:45.458Z,17.98
2022-08-16T19:44:13.143Z,18.25
2022-08-16T19:46:44.699Z,15.25
2022-08-16T19:49:15.842Z,13.10
2022-08-16T19:51:45.253Z,11.82
2022-08-16T19:54:12.313Z,14.95
2022-08-16T19:56:39.400Z,14.52
2022-08-16T19:59:39.618Z,24.20
2022-08-16T20:01:53.557Z,31.63
2022-08-16T20:04:22.033Z,44.15
2022-08-16T20:06:49.837Z,32.17
2022-08-16T20:09:17.158Z,15.80
2022-08-16T20:11:48.352Z,17.98
2022-08-16T20:14:24.651Z,13.40
2022-08-16T20:16:57.196Z,19.27
2022-08-16T20:19:27.092Z,16.33
2022-08-16T20:21:56.187Z,21.05
2022-08-16T20:24:34.177Z,15.27
2022-08-16T20:27:03.713Z,17.23
2022-08-16T20:29:31.030Z,19.42
2022-08-16T20:31:58.236Z,16.15
2022-08-16T20:34:25.376Z,19.73
2022-08-16T20:36:52.431Z,13.70
2022-08-16T20:39:19.872Z,19.15
2022-08-16T20:41:46.994Z,16.23
2022-08-16T20:44:14.164Z,18.48
2022-08-16T20:46:41.381Z,24.75
2022-08-16T20:49:10.129Z,28.17
2022-08-16T20:51:49.046Z,22.33
2022-08-16T20:54:17.115Z,20.20
2022-08-16T20:56:44.214Z,19.05
2022-08-16T20:59:11.277Z,19.48
2022-08-16T21:01:46.184Z,24.60
2022-08-16T21:04:14.331Z,16.02
2022-08-16T21:06:41.482Z,18.50
2022-08-16T21:09:20.412Z,21.48
2022-08-16T21:11:53.148Z,17.25
2022-08-16T21:14:20.347Z,20.60
2022-08-16T21:16:47.424Z,22.08
2022-08-16T21:19:14.841Z,17.35
2022-08-16T21:21:41.956Z,18.20
2022-08-16T21:24:09.060Z,17.77
2022-08-16T21:26:38.898Z,18.83
2022-08-16T21:29:07.802Z,19.45
2022-08-16T21:31:40.017Z,19.45
2022-08-16T21:34:08.043Z,19.42
2022-08-16T21:36:36.536Z,25.40
2022-08-16T21:39:06.037Z,22.05
2022-08-16T21:41:34.365Z,23.98
2022-08-16T21:44:01.571Z,20.83
2022-08-16T21:46:28.710Z,19.65
2022-08-16T21:48:55.808Z,19.88
2022-08-16T21:51:23.385Z,18.52
2022-08-16T21:53:50.468Z,21.55
2022-08-16T21:56:17.672Z,20.70
2022-08-16T21:58:46.264Z,20.60
2022-08-16T22:01:13.386Z,21.95
2022-08-16T22:03:40.521Z,18.90
2022-08-16T22:06:12.723Z,23.88
2022-08-16T22:08:48.756Z,25.55
2022-08-16T22:11:19.653Z,25.80
2022-08-16T22:13:51.476Z,23.45
2022-08-16T22:16:33.484Z,22.73
2022-08-16T22:21:28.399Z,24.50
2022-08-16T22:23:57.542Z,24.25
2022-08-16T22:26:40.892Z,24.85
2022-08-16T22:29:12.783Z,26.77
2022-08-16T22:31:40.670Z,19.90
2022-08-16T22:34:08.862Z,27.95
2022-08-16T22:36:36.153Z,23.17
2022-08-16T22:39:06.237Z,24.60
2022-08-16T22:41:34.918Z,29.23
2022-08-16T22:44:03.544Z,24.40
2022-08-16T22:46:31.020Z,21.63
2022-08-16T22:48:58.215Z,20.27
2022-08-16T22:51:28.062Z,18.88
2022-08-16T22:53:56.111Z,22.95
2022-08-16T22:56:23.844Z,23.45
2022-08-16T22:58:51.016Z,21.48
2022-08-16T23:01:19.550Z,19.92
2022-08-16T23:03:46.740Z,19.92
2022-08-16T23:06:14.187Z,24.33
2022-08-16T23:08:42.060Z,19.27
2022-08-16T23:11:12.025Z,20.23
2022-08-16T23:13:49.849Z,19.67
2022-08-16T23:16:38.820Z,17.40
2022-08-16T23:19:08.480Z,18.15
2022-08-16T23:21:37.113Z,23.98
2022-08-16T23:24:05.788Z,18.17
2022-08-16T23:26:45.141Z,20.58
2022-08-16T23:29:23.607Z,21.63
2022-08-16T23:31:55.308Z,18.83
2022-08-16T23:34:22.714Z,22.73
2022-08-16T23:36:50.135Z,18.50
2022-08-16T23:39:17.247Z,18.30
2022-08-16T23:41:44.449Z,16.35
2022-08-16T23:44:55.334Z,15.35
2022-08-16T23:46:58.922Z,16.15
2022-08-16T23:49:58.988Z,19.70
2022-08-16T23:52:13.186Z,14.13
2022-08-16T23:54:40.294Z,19.67
2022-08-16T23:57:08.343Z,18.38
2022-08-16T23:59:41.101Z,14.85
